sensor_id;sensor_type;location;lat;lon;timestamp;P1;durP1;ratioP1;P2;durP2;ratioP2
16270;SDS011;8243;49.048;8.396;2023-02-28T00:01:11;2.30;;;2.10;;
16270;SDS011;8243;49.048;8.396;2023-02-28T00:03:37;2.53;;;2.03;;
16270;SDS011;8243;49.048;8.396;2023-02-28T00:06:03;2.50;;;2.30;;
16270;SDS011;8243;49.048;8.396;2023-02-28T00:08:30;2.20;;;2.00;;
16270;SDS011;8243;49.048;8.396;2023-02-28T00:10:56;2.27;;;2.00;;
16270;SDS011;8243;49.048;8.396;2023-02-28T00:13:21;2.53;;;2.07;;
16270;SDS011;8243;49.048;8.396;2023-02-28T00:15:47;2.60;;;2.03;;
16270;SDS011;8243;49.048;8.396;2023-02-28T00:18:12;2.17;;;1.93;;
16270;SDS011;8243;49.048;8.396;2023-02-28T00:20:38;2.10;;;1.90;;
16270;SDS011;8243;49.048;8.396;2023-02-28T00:23:04;2.30;;;2.10;;
16270;SDS011;8243;49.048;8.396;2023-02-28T00:25:29;3.13;;;2.20;;
16270;SDS011;8243;49.048;8.396;2023-02-28T00:27:55;2.00;;;1.73;;
16270;SDS011;8243;49.048;8.396;2023-02-28T00:30:22;2.63;;;2.10;;
16270;SDS011;8243;49.048;8.396;2023-02-28T00:32:48;2.10;;;1.87;;
16270;SDS011;8243;49.048;8.396;2023-02-28T00:35:15;2.17;;;1.97;;
16270;SDS011;8243;49.048;8.396;2023-02-28T00:37:41;2.77;;;2.27;;
16270;SDS011;8243;49.048;8.396;2023-02-28T00:40:07;2.80;;;2.03;;
16270;SDS011;8243;49.048;8.396;2023-02-28T00:42:34;2.53;;;1.97;;
16270;SDS011;8243;49.048;8.396;2023-02-28T00:45:00;2.00;;;1.90;;
16270;SDS011;8243;49.048;8.396;2023-02-28T00:47:26;1.93;;;1.80;;
16270;SDS011;8243;49.048;8.396;2023-02-28T00:49:52;2.07;;;1.90;;
16270;SDS011;8243;49.048;8.396;2023-02-28T00:52:17;4.03;;;1.90;;
16270;SDS011;8243;49.048;8.396;2023-02-28T00:54:43;2.37;;;2.03;;
16270;SDS011;8243;49.048;8.396;2023-02-28T00:57:08;2.60;;;2.40;;
16270;SDS011;8243;49.048;8.396;2023-02-28T00:59:34;3.03;;;2.20;;
16270;SDS011;8243;49.048;8.396;2023-02-28T01:02:00;1.73;;;1.60;;
16270;SDS011;8243;49.048;8.396;2023-02-28T01:04:25;2.40;;;2.20;;
16270;SDS011;8243;49.048;8.396;2023-02-28T01:06:51;2.03;;;1.80;;
16270;SDS011;8243;49.048;8.396;2023-02-28T01:09:16;2.00;;;1.80;;
16270;SDS011;8243;49.048;8.396;2023-02-28T01:11:42;3.07;;;2.13;;
16270;SDS011;8243;49.048;8.396;2023-02-28T01:14:10;2.90;;;2.37;;
16270;SDS011;8243;49.048;8.396;2023-02-28T01:16:38;2.20;;;2.00;;
16270;SDS011;8243;49.048;8.396;2023-02-28T01:19:04;2.40;;;2.10;;
16270;SDS011;8243;49.048;8.396;2023-02-28T01:21:29;3.10;;;1.90;;
16270;SDS011;8243;49.048;8.396;2023-02-28T01:23:56;3.20;;;1.70;;
16270;SDS011;8243;49.048;8.396;2023-02-28T01:26:22;2.80;;;2.40;;
16270;SDS011;8243;49.048;8.396;2023-02-28T01:28:48;3.07;;;2.13;;
16270;SDS011;8243;49.048;8.396;2023-02-28T01:31:15;1.97;;;1.80;;
16270;SDS011;8243;49.048;8.396;2023-02-28T01:33:41;2.43;;;2.23;;
16270;SDS011;8243;49.048;8.396;2023-02-28T01:36:08;3.40;;;2.50;;
16270;SDS011;8243;49.048;8.396;2023-02-28T01:38:39;3.03;;;2.23;;
16270;SDS011;8243;49.048;8.396;2023-02-28T01:41:05;2.90;;;2.40;;
16270;SDS011;8243;49.048;8.396;2023-02-28T01:43:52;2.27;;;1.80;;
16270;SDS011;8243;49.048;8.396;2023-02-28T01:46:20;2.30;;;2.10;;
16270;SDS011;8243;49.048;8.396;2023-02-28T01:51:12;3.27;;;1.70;;
16270;SDS011;8243;49.048;8.396;2023-02-28T01:53:44;1.93;;;1.67;;
16270;SDS011;8243;49.048;8.396;2023-02-28T01:56:13;2.33;;;1.67;;
16270;SDS011;8243;49.048;8.396;2023-02-28T01:58:46;2.17;;;1.87;;
16270;SDS011;8243;49.048;8.396;2023-02-28T02:01:12;1.63;;;1.40;;
16270;SDS011;8243;49.048;8.396;2023-02-28T02:03:46;3.37;;;2.13;;
16270;SDS011;8243;49.048;8.396;2023-02-28T02:06:30;2.07;;;1.60;;
16270;SDS011;8243;49.048;8.396;2023-02-28T02:09:03;2.63;;;2.10;;
16270;SDS011;8243;49.048;8.396;2023-02-28T02:11:29;5.90;;;2.20;;
16270;SDS011;8243;49.048;8.396;2023-02-28T02:14:02;2.10;;;1.90;;
16270;SDS011;8243;49.048;8.396;2023-02-28T02:22:11;2.10;;;1.83;;
16270;SDS011;8243;49.048;8.396;2023-02-28T02:27:25;4.03;;;2.23;;
16270;SDS011;8243;49.048;8.396;2023-02-28T02:33:10;5.00;;;2.50;;
16270;SDS011;8243;49.048;8.396;2023-02-28T02:38:30;2.60;;;2.40;;
16270;SDS011;8243;49.048;8.396;2023-02-28T02:44:01;4.13;;;2.73;;
16270;SDS011;8243;49.048;8.396;2023-02-28T02:46:37;2.87;;;2.60;;
16270;SDS011;8243;49.048;8.396;2023-02-28T02:49:08;2.77;;;2.47;;
16270;SDS011;8243;49.048;8.396;2023-02-28T02:51:37;2.77;;;2.37;;
16270;SDS011;8243;49.048;8.396;2023-02-28T02:56:30;4.03;;;2.10;;
16270;SDS011;8243;49.048;8.396;2023-02-28T02:58:59;3.13;;;2.33;;
16270;SDS011;8243;49.048;8.396;2023-02-28T03:01:28;2.97;;;2.40;;
16270;SDS011;8243;49.048;8.396;2023-02-28T03:03:56;1.80;;;1.70;;
16270;SDS011;8243;49.048;8.396;2023-02-28T03:06:24;2.73;;;2.30;;
16270;SDS011;8243;49.048;8.396;2023-02-28T03:08:50;2.30;;;2.00;;
16270;SDS011;8243;49.048;8.396;2023-02-28T03:11:15;2.50;;;2.30;;
16270;SDS011;8243;49.048;8.396;2023-02-28T03:24:01;2.83;;;2.07;;
16270;SDS011;8243;49.048;8.396;2023-02-28T03:26:29;2.63;;;1.83;;
16270;SDS011;8243;49.048;8.396;2023-02-28T03:31:48;3.10;;;2.50;;
16270;SDS011;8243;49.048;8.396;2023-02-28T03:34:37;3.67;;;2.80;;
16270;SDS011;8243;49.048;8.396;2023-02-28T03:37:15;3.17;;;2.63;;
16270;SDS011;8243;49.048;8.396;2023-02-28T03:39:47;3.50;;;2.53;;
16270;SDS011;8243;49.048;8.396;2023-02-28T03:42:24;2.87;;;1.93;;
16270;SDS011;8243;49.048;8.396;2023-02-28T03:44:54;3.00;;;2.70;;
16270;SDS011;8243;49.048;8.396;2023-02-28T03:47:37;2.60;;;1.87;;
16270;SDS011;8243;49.048;8.396;2023-02-28T03:50:17;3.17;;;2.30;;
16270;SDS011;8243;49.048;8.396;2023-02-28T03:52:50;2.20;;;2.00;;
16270;SDS011;8243;49.048;8.396;2023-02-28T03:55:26;2.60;;;2.40;;
16270;SDS011;8243;49.048;8.396;2023-02-28T03:58:01;3.73;;;2.97;;
16270;SDS011;8243;49.048;8.396;2023-02-28T04:00:51;3.10;;;2.60;;
16270;SDS011;8243;49.048;8.396;2023-02-28T04:03:21;2.60;;;2.40;;
16270;SDS011;8243;49.048;8.396;2023-02-28T04:05:54;3.47;;;2.70;;
16270;SDS011;8243;49.048;8.396;2023-02-28T04:08:22;3.33;;;2.67;;
16270;SDS011;8243;49.048;8.396;2023-02-28T04:10:56;3.13;;;2.83;;
16270;SDS011;8243;49.048;8.396;2023-02-28T04:13:29;3.53;;;2.73;;
16270;SDS011;8243;49.048;8.396;2023-02-28T04:15:54;2.97;;;2.13;;
16270;SDS011;8243;49.048;8.396;2023-02-28T04:18:20;2.93;;;2.40;;
16270;SDS011;8243;49.048;8.396;2023-02-28T04:20:45;4.67;;;2.80;;
16270;SDS011;8243;49.048;8.396;2023-02-28T04:23:11;3.40;;;3.03;;
16270;SDS011;8243;49.048;8.396;2023-02-28T04:25:36;3.27;;;2.90;;
16270;SDS011;8243;49.048;8.396;2023-02-28T04:28:02;3.43;;;3.13;;
16270;SDS011;8243;49.048;8.396;2023-02-28T04:30:27;4.03;;;3.13;;
16270;SDS011;8243;49.048;8.396;2023-02-28T04:32:54;4.10;;;2.70;;
16270;SDS011;8243;49.048;8.396;2023-02-28T04:35:20;4.63;;;2.70;;
16270;SDS011;8243;49.048;8.396;2023-02-28T04:37:45;2.67;;;2.33;;
16270;SDS011;8243;49.048;8.396;2023-02-28T04:40:11;2.40;;;2.20;;
16270;SDS011;8243;49.048;8.396;2023-02-28T04:42:36;4.60;;;3.60;;
16270;SDS011;8243;49.048;8.396;2023-02-28T04:45:03;5.97;;;3.63;;
16270;SDS011;8243;49.048;8.396;2023-02-28T04:47:29;7.50;;;4.47;;
16270;SDS011;8243;49.048;8.396;2023-02-28T04:49:54;7.43;;;3.80;;
16270;SDS011;8243;49.048;8.396;2023-02-28T04:52:20;12.00;;;5.13;;
16270;SDS011;8243;49.048;8.396;2023-02-28T04:54:46;4.73;;;3.27;;
16270;SDS011;8243;49.048;8.396;2023-02-28T04:57:11;19.20;;;8.40;;
16270;SDS011;8243;49.048;8.396;2023-02-28T04:59:37;4.80;;;3.50;;
16270;SDS011;8243;49.048;8.396;2023-02-28T05:02:02;4.10;;;3.40;;
16270;SDS011;8243;49.048;8.396;2023-02-28T05:04:31;7.17;;;4.10;;
16270;SDS011;8243;49.048;8.396;2023-02-28T05:07:01;2.73;;;2.50;;
16270;SDS011;8243;49.048;8.396;2023-02-28T05:09:27;5.97;;;3.53;;
16270;SDS011;8243;49.048;8.396;2023-02-28T05:11:53;5.70;;;3.40;;
16270;SDS011;8243;49.048;8.396;2023-02-28T05:14:19;4.87;;;3.53;;
16270;SDS011;8243;49.048;8.396;2023-02-28T05:16:44;4.23;;;2.67;;
16270;SDS011;8243;49.048;8.396;2023-02-28T05:19:10;4.77;;;3.23;;
16270;SDS011;8243;49.048;8.396;2023-02-28T05:21:36;3.33;;;3.03;;
16270;SDS011;8243;49.048;8.396;2023-02-28T05:24:05;4.93;;;3.53;;
16270;SDS011;8243;49.048;8.396;2023-02-28T05:26:35;5.23;;;3.80;;
16270;SDS011;8243;49.048;8.396;2023-02-28T05:29:05;3.87;;;3.13;;
16270;SDS011;8243;49.048;8.396;2023-02-28T05:31:31;4.93;;;3.60;;
16270;SDS011;8243;49.048;8.396;2023-02-28T05:33:57;4.33;;;3.53;;
16270;SDS011;8243;49.048;8.396;2023-02-28T05:36:23;5.00;;;3.73;;
16270;SDS011;8243;49.048;8.396;2023-02-28T05:38:49;4.47;;;3.60;;
16270;SDS011;8243;49.048;8.396;2023-02-28T05:41:16;5.03;;;3.70;;
16270;SDS011;8243;49.048;8.396;2023-02-28T05:43:44;4.07;;;3.67;;
16270;SDS011;8243;49.048;8.396;2023-02-28T05:46:10;4.07;;;3.53;;
16270;SDS011;8243;49.048;8.396;2023-02-28T05:48:36;4.73;;;3.60;;
16270;SDS011;8243;49.048;8.396;2023-02-28T05:51:03;6.87;;;3.90;;
16270;SDS011;8243;49.048;8.396;2023-02-28T05:53:29;6.63;;;4.00;;
16270;SDS011;8243;49.048;8.396;2023-02-28T05:55:55;5.43;;;3.87;;
16270;SDS011;8243;49.048;8.396;2023-02-28T05:58:21;5.87;;;3.80;;
16270;SDS011;8243;49.048;8.396;2023-02-28T06:00:48;5.20;;;3.67;;
16270;SDS011;8243;49.048;8.396;2023-02-28T06:03:13;4.20;;;3.77;;
16270;SDS011;8243;49.048;8.396;2023-02-28T06:05:39;4.47;;;3.80;;
16270;SDS011;8243;49.048;8.396;2023-02-28T06:08:05;5.73;;;3.80;;
16270;SDS011;8243;49.048;8.396;2023-02-28T06:10:34;6.97;;;4.40;;
16270;SDS011;8243;49.048;8.396;2023-02-28T06:13:00;4.40;;;3.50;;
16270;SDS011;8243;49.048;8.396;2023-02-28T06:15:27;3.83;;;3.13;;
16270;SDS011;8243;49.048;8.396;2023-02-28T06:17:54;5.50;;;3.83;;
16270;SDS011;8243;49.048;8.396;2023-02-28T06:20:21;4.80;;;3.43;;
16270;SDS011;8243;49.048;8.396;2023-02-28T06:22:48;4.97;;;3.73;;
16270;SDS011;8243;49.048;8.396;2023-02-28T06:25:15;3.90;;;3.30;;
16270;SDS011;8243;49.048;8.396;2023-02-28T06:27:40;5.10;;;3.43;;
16270;SDS011;8243;49.048;8.396;2023-02-28T06:30:06;3.77;;;3.13;;
16270;SDS011;8243;49.048;8.396;2023-02-28T06:32:32;3.80;;;3.03;;
16270;SDS011;8243;49.048;8.396;2023-02-28T06:34:58;7.20;;;3.27;;
16270;SDS011;8243;49.048;8.396;2023-02-28T06:37:23;4.30;;;3.47;;
16270;SDS011;8243;49.048;8.396;2023-02-28T06:39:52;4.27;;;3.50;;
16270;SDS011;8243;49.048;8.396;2023-02-28T06:42:18;3.60;;;3.07;;
16270;SDS011;8243;49.048;8.396;2023-02-28T06:44:44;4.40;;;3.50;;
16270;SDS011;8243;49.048;8.396;2023-02-28T06:47:10;4.73;;;3.03;;
16270;SDS011;8243;49.048;8.396;2023-02-28T06:49:36;3.53;;;3.07;;
16270;SDS011;8243;49.048;8.396;2023-02-28T06:52:01;4.13;;;3.00;;
16270;SDS011;8243;49.048;8.396;2023-02-28T06:54:28;4.37;;;3.47;;
16270;SDS011;8243;49.048;8.396;2023-02-28T06:56:53;5.00;;;4.10;;
16270;SDS011;8243;49.048;8.396;2023-02-28T06:59:19;6.83;;;3.90;;
16270;SDS011;8243;49.048;8.396;2023-02-28T07:01:45;6.70;;;3.87;;
16270;SDS011;8243;49.048;8.396;2023-02-28T07:04:11;4.33;;;2.87;;
16270;SDS011;8243;49.048;8.396;2023-02-28T07:06:38;18.43;;;4.57;;
16270;SDS011;8243;49.048;8.396;2023-02-28T07:09:04;10.40;;;3.47;;
16270;SDS011;8243;49.048;8.396;2023-02-28T07:11:30;27.73;;;5.43;;
16270;SDS011;8243;49.048;8.396;2023-02-28T07:13:55;5.60;;;3.97;;
16270;SDS011;8243;49.048;8.396;2023-02-28T07:16:22;4.40;;;3.27;;
16270;SDS011;8243;49.048;8.396;2023-02-28T07:18:49;4.80;;;3.40;;
16270;SDS011;8243;49.048;8.396;2023-02-28T07:21:16;8.03;;;2.93;;
16270;SDS011;8243;49.048;8.396;2023-02-28T07:23:42;3.47;;;2.93;;
16270;SDS011;8243;49.048;8.396;2023-02-28T07:26:11;7.53;;;4.17;;
16270;SDS011;8243;49.048;8.396;2023-02-28T07:28:39;5.47;;;3.70;;
16270;SDS011;8243;49.048;8.396;2023-02-28T07:31:09;6.23;;;3.43;;
16270;SDS011;8243;49.048;8.396;2023-02-28T07:33:35;3.47;;;3.13;;
16270;SDS011;8243;49.048;8.396;2023-02-28T07:36:02;3.27;;;2.97;;
16270;SDS011;8243;49.048;8.396;2023-02-28T07:38:29;5.97;;;3.40;;
16270;SDS011;8243;49.048;8.396;2023-02-28T07:40:55;4.23;;;3.20;;
16270;SDS011;8243;49.048;8.396;2023-02-28T07:43:20;4.23;;;3.73;;
16270;SDS011;8243;49.048;8.396;2023-02-28T07:45:46;4.80;;;3.87;;
16270;SDS011;8243;49.048;8.396;2023-02-28T07:48:11;3.90;;;3.50;;
16270;SDS011;8243;49.048;8.396;2023-02-28T07:50:37;6.20;;;3.90;;
16270;SDS011;8243;49.048;8.396;2023-02-28T07:53:03;4.50;;;3.60;;
16270;SDS011;8243;49.048;8.396;2023-02-28T07:55:29;4.47;;;3.60;;
16270;SDS011;8243;49.048;8.396;2023-02-28T07:57:56;4.80;;;3.80;;
16270;SDS011;8243;49.048;8.396;2023-02-28T08:00:22;3.60;;;3.07;;
16270;SDS011;8243;49.048;8.396;2023-02-28T08:02:48;3.10;;;2.57;;
16270;SDS011;8243;49.048;8.396;2023-02-28T08:05:14;4.37;;;3.83;;
16270;SDS011;8243;49.048;8.396;2023-02-28T08:07:40;4.73;;;3.93;;
16270;SDS011;8243;49.048;8.396;2023-02-28T08:10:05;3.93;;;3.30;;
16270;SDS011;8243;49.048;8.396;2023-02-28T08:12:32;3.53;;;3.13;;
16270;SDS011;8243;49.048;8.396;2023-02-28T08:14:57;4.97;;;3.53;;
16270;SDS011;8243;49.048;8.396;2023-02-28T08:17:23;7.13;;;3.87;;
16270;SDS011;8243;49.048;8.396;2023-02-28T08:19:48;3.93;;;3.37;;
16270;SDS011;8243;49.048;8.396;2023-02-28T08:22:14;3.97;;;3.30;;
16270;SDS011;8243;49.048;8.396;2023-02-28T08:24:40;5.83;;;3.77;;
16270;SDS011;8243;49.048;8.396;2023-02-28T08:27:07;4.70;;;3.70;;
16270;SDS011;8243;49.048;8.396;2023-02-28T08:29:33;5.27;;;3.37;;
16270;SDS011;8243;49.048;8.396;2023-02-28T08:32:02;5.03;;;3.47;;
16270;SDS011;8243;49.048;8.396;2023-02-28T08:34:28;4.47;;;3.70;;
16270;SDS011;8243;49.048;8.396;2023-02-28T08:36:54;4.73;;;3.67;;
16270;SDS011;8243;49.048;8.396;2023-02-28T08:39:20;4.17;;;3.47;;
16270;SDS011;8243;49.048;8.396;2023-02-28T08:41:46;5.67;;;4.67;;
16270;SDS011;8243;49.048;8.396;2023-02-28T08:44:11;5.30;;;3.63;;
16270;SDS011;8243;49.048;8.396;2023-02-28T08:46:37;6.73;;;4.23;;
16270;SDS011;8243;49.048;8.396;2023-02-28T08:49:03;5.27;;;3.97;;
16270;SDS011;8243;49.048;8.396;2023-02-28T08:51:29;5.47;;;4.87;;
16270;SDS011;8243;49.048;8.396;2023-02-28T08:53:55;5.17;;;3.93;;
16270;SDS011;8243;49.048;8.396;2023-02-28T08:56:25;5.10;;;4.30;;
16270;SDS011;8243;49.048;8.396;2023-02-28T08:58:52;6.07;;;4.07;;
16270;SDS011;8243;49.048;8.396;2023-02-28T09:01:27;4.43;;;3.93;;
16270;SDS011;8243;49.048;8.396;2023-02-28T09:03:54;6.23;;;4.30;;
16270;SDS011;8243;49.048;8.396;2023-02-28T09:06:21;6.63;;;3.93;;
16270;SDS011;8243;49.048;8.396;2023-02-28T09:08:47;4.47;;;3.70;;
16270;SDS011;8243;49.048;8.396;2023-02-28T09:11:13;6.13;;;3.70;;
16270;SDS011;8243;49.048;8.396;2023-02-28T09:13:39;15.40;;;5.60;;
16270;SDS011;8243;49.048;8.396;2023-02-28T09:16:05;4.83;;;3.37;;
16270;SDS011;8243;49.048;8.396;2023-02-28T09:18:33;6.40;;;4.17;;
16270;SDS011;8243;49.048;8.396;2023-02-28T09:21:02;5.37;;;4.77;;
16270;SDS011;8243;49.048;8.396;2023-02-28T09:23:29;5.70;;;4.87;;
16270;SDS011;8243;49.048;8.396;2023-02-28T09:25:55;4.47;;;3.47;;
16270;SDS011;8243;49.048;8.396;2023-02-28T09:28:21;5.73;;;3.90;;
16270;SDS011;8243;49.048;8.396;2023-02-28T09:30:48;6.60;;;5.17;;
16270;SDS011;8243;49.048;8.396;2023-02-28T09:33:15;5.13;;;4.27;;
16270;SDS011;8243;49.048;8.396;2023-02-28T09:35:41;5.43;;;4.57;;
16270;SDS011;8243;49.048;8.396;2023-02-28T09:38:08;7.57;;;4.80;;
16270;SDS011;8243;49.048;8.396;2023-02-28T09:40:39;5.37;;;4.43;;
16270;SDS011;8243;49.048;8.396;2023-02-28T09:43:15;6.50;;;4.43;;
16270;SDS011;8243;49.048;8.396;2023-02-28T09:45:45;4.60;;;4.20;;
16270;SDS011;8243;49.048;8.396;2023-02-28T09:48:37;7.37;;;4.80;;
16270;SDS011;8243;49.048;8.396;2023-02-28T09:51:26;5.70;;;5.03;;
16270;SDS011;8243;49.048;8.396;2023-02-28T09:53:59;5.30;;;3.47;;
16270;SDS011;8243;49.048;8.396;2023-02-28T09:56:28;4.17;;;3.77;;
16270;SDS011;8243;49.048;8.396;2023-02-28T10:07:06;8.00;;;5.10;;
16270;SDS011;8243;49.048;8.396;2023-02-28T10:09:47;5.43;;;4.73;;
16270;SDS011;8243;49.048;8.396;2023-02-28T10:12:17;54.40;;;22.47;;
16270;SDS011;8243;49.048;8.396;2023-02-28T10:14:45;5.57;;;4.37;;
16270;SDS011;8243;49.048;8.396;2023-02-28T10:17:24;6.37;;;4.40;;
16270;SDS011;8243;49.048;8.396;2023-02-28T10:20:02;5.07;;;4.47;;
16270;SDS011;8243;49.048;8.396;2023-02-28T10:22:34;6.67;;;4.80;;
16270;SDS011;8243;49.048;8.396;2023-02-28T10:25:17;6.50;;;5.30;;
16270;SDS011;8243;49.048;8.396;2023-02-28T10:27:45;6.17;;;5.57;;
16270;SDS011;8243;49.048;8.396;2023-02-28T10:30:11;6.97;;;5.37;;
16270;SDS011;8243;49.048;8.396;2023-02-28T10:32:39;5.93;;;4.33;;
16270;SDS011;8243;49.048;8.396;2023-02-28T10:35:45;5.87;;;4.93;;
16270;SDS011;8243;49.048;8.396;2023-02-28T10:38:05;7.73;;;5.80;;
16270;SDS011;8243;49.048;8.396;2023-02-28T10:40:41;5.53;;;4.73;;
16270;SDS011;8243;49.048;8.396;2023-02-28T10:45:38;7.00;;;5.97;;
16270;SDS011;8243;49.048;8.396;2023-02-28T10:48:06;6.90;;;4.93;;
16270;SDS011;8243;49.048;8.396;2023-02-28T10:51:07;7.27;;;5.13;;
16270;SDS011;8243;49.048;8.396;2023-02-28T10:53:48;7.23;;;5.70;;
16270;SDS011;8243;49.048;8.396;2023-02-28T10:56:20;8.27;;;4.60;;
16270;SDS011;8243;49.048;8.396;2023-02-28T11:01:22;5.40;;;3.87;;
16270;SDS011;8243;49.048;8.396;2023-02-28T11:04:18;4.00;;;3.20;;
16270;SDS011;8243;49.048;8.396;2023-02-28T11:06:47;3.80;;;3.17;;
16270;SDS011;8243;49.048;8.396;2023-02-28T11:09:25;7.13;;;5.80;;
16270;SDS011;8243;49.048;8.396;2023-02-28T11:11:56;6.93;;;4.27;;
16270;SDS011;8243;49.048;8.396;2023-02-28T11:14:26;7.27;;;5.07;;
16270;SDS011;8243;49.048;8.396;2023-02-28T11:16:54;8.60;;;5.97;;
16270;SDS011;8243;49.048;8.396;2023-02-28T11:19:29;5.83;;;4.80;;
16270;SDS011;8243;49.048;8.396;2023-02-28T11:22:03;8.07;;;5.07;;
16270;SDS011;8243;49.048;8.396;2023-02-28T11:27:01;6.73;;;5.50;;
16270;SDS011;8243;49.048;8.396;2023-02-28T11:29:27;6.30;;;5.03;;
16270;SDS011;8243;49.048;8.396;2023-02-28T11:32:12;7.20;;;5.80;;
16270;SDS011;8243;49.048;8.396;2023-02-28T11:34:44;8.57;;;5.10;;
16270;SDS011;8243;49.048;8.396;2023-02-28T11:37:12;5.77;;;5.13;;
16270;SDS011;8243;49.048;8.396;2023-02-28T11:39:44;7.63;;;5.53;;
16270;SDS011;8243;49.048;8.396;2023-02-28T11:44:57;9.53;;;5.57;;
16270;SDS011;8243;49.048;8.396;2023-02-28T11:47:59;6.83;;;5.47;;
16270;SDS011;8243;49.048;8.396;2023-02-28T11:56:16;6.67;;;4.93;;
16270;SDS011;8243;49.048;8.396;2023-02-28T12:01:19;7.47;;;6.03;;
16270;SDS011;8243;49.048;8.396;2023-02-28T12:03:56;6.30;;;5.27;;
16270;SDS011;8243;49.048;8.396;2023-02-28T12:06:33;17.60;;;5.77;;
16270;SDS011;8243;49.048;8.396;2023-02-28T12:11:53;6.43;;;5.37;;
16270;SDS011;8243;49.048;8.396;2023-02-28T12:20:09;5.43;;;4.17;;
16270;SDS011;8243;49.048;8.396;2023-02-28T12:22:43;8.23;;;6.03;;
16270;SDS011;8243;49.048;8.396;2023-02-28T12:25:35;18.80;;;6.40;;
16270;SDS011;8243;49.048;8.396;2023-02-28T12:28:17;8.17;;;5.97;;
16270;SDS011;8243;49.048;8.396;2023-02-28T12:30:56;6.87;;;5.57;;
16270;SDS011;8243;49.048;8.396;2023-02-28T12:33:38;8.07;;;5.10;;
16270;SDS011;8243;49.048;8.396;2023-02-28T12:36:10;7.37;;;6.47;;
16270;SDS011;8243;49.048;8.396;2023-02-28T12:39:23;6.90;;;5.10;;
16270;SDS011;8243;49.048;8.396;2023-02-28T12:41:39;9.10;;;6.17;;
16270;SDS011;8243;49.048;8.396;2023-02-28T12:44:17;6.63;;;5.93;;
16270;SDS011;8243;49.048;8.396;2023-02-28T12:46:55;6.97;;;5.97;;
16270;SDS011;8243;49.048;8.396;2023-02-28T12:49:29;9.10;;;5.57;;
16270;SDS011;8243;49.048;8.396;2023-02-28T12:51:59;6.40;;;5.00;;
16270;SDS011;8243;49.048;8.396;2023-02-28T12:54:37;6.07;;;4.83;;
16270;SDS011;8243;49.048;8.396;2023-02-28T12:59:42;6.47;;;5.70;;
16270;SDS011;8243;49.048;8.396;2023-02-28T13:10:59;6.27;;;5.60;;
16270;SDS011;8243;49.048;8.396;2023-02-28T13:13:26;6.33;;;5.70;;
16270;SDS011;8243;49.048;8.396;2023-02-28T13:16:06;5.37;;;4.87;;
16270;SDS011;8243;49.048;8.396;2023-02-28T13:21:09;6.27;;;4.60;;
16270;SDS011;8243;49.048;8.396;2023-02-28T13:29:04;5.97;;;5.13;;
16270;SDS011;8243;49.048;8.396;2023-02-28T13:47:30;6.30;;;5.60;;
16270;SDS011;8243;49.048;8.396;2023-02-28T14:04:37;6.40;;;5.60;;
16270;SDS011;8243;49.048;8.396;2023-02-28T14:07:26;7.60;;;5.77;;
16270;SDS011;8243;49.048;8.396;2023-02-28T14:09:57;10.33;;;6.60;;
16270;SDS011;8243;49.048;8.396;2023-02-28T14:15:39;11.23;;;5.63;;
16270;SDS011;8243;49.048;8.396;2023-02-28T14:18:32;7.43;;;6.47;;
16270;SDS011;8243;49.048;8.396;2023-02-28T14:21:11;6.67;;;5.13;;
16270;SDS011;8243;49.048;8.396;2023-02-28T14:26:44;5.87;;;5.27;;
16270;SDS011;8243;49.048;8.396;2023-02-28T14:29:32;9.27;;;5.63;;
16270;SDS011;8243;49.048;8.396;2023-02-28T14:32:32;7.17;;;6.10;;
16270;SDS011;8243;49.048;8.396;2023-02-28T14:37:50;6.53;;;5.60;;
16270;SDS011;8243;49.048;8.396;2023-02-28T14:40:22;7.87;;;5.73;;
16270;SDS011;8243;49.048;8.396;2023-02-28T14:42:56;7.40;;;6.27;;
16270;SDS011;8243;49.048;8.396;2023-02-28T14:45:30;5.77;;;5.03;;
16270;SDS011;8243;49.048;8.396;2023-02-28T14:47:58;7.03;;;6.03;;
16270;SDS011;8243;49.048;8.396;2023-02-28T14:50:32;5.53;;;4.67;;
16270;SDS011;8243;49.048;8.396;2023-02-28T14:53:00;9.37;;;6.63;;
16270;SDS011;8243;49.048;8.396;2023-02-28T14:55:36;6.13;;;5.23;;
16270;SDS011;8243;49.048;8.396;2023-02-28T14:58:03;7.90;;;6.05;;
16270;SDS011;8243;49.048;8.396;2023-02-28T15:00:35;7.87;;;6.10;;
16270;SDS011;8243;49.048;8.396;2023-02-28T15:05:54;7.50;;;6.77;;
16270;SDS011;8243;49.048;8.396;2023-02-28T15:08:22;8.37;;;6.07;;
16270;SDS011;8243;49.048;8.396;2023-02-28T15:10:55;7.93;;;6.67;;
16270;SDS011;8243;49.048;8.396;2023-02-28T15:13:36;8.33;;;5.87;;
16270;SDS011;8243;49.048;8.396;2023-02-28T15:16:06;8.87;;;7.07;;
16270;SDS011;8243;49.048;8.396;2023-02-28T15:21:12;5.93;;;5.00;;
16270;SDS011;8243;49.048;8.396;2023-02-28T15:23:41;7.30;;;6.43;;
16270;SDS011;8243;49.048;8.396;2023-02-28T15:26:13;13.23;;;10.90;;
16270;SDS011;8243;49.048;8.396;2023-02-28T15:28:45;7.13;;;6.30;;
16270;SDS011;8243;49.048;8.396;2023-02-28T15:31:21;7.43;;;6.67;;
16270;SDS011;8243;49.048;8.396;2023-02-28T15:33:56;9.50;;;6.77;;
16270;SDS011;8243;49.048;8.396;2023-02-28T15:36:28;6.97;;;5.63;;
16270;SDS011;8243;49.048;8.396;2023-02-28T15:38:56;6.73;;;5.60;;
16270;SDS011;8243;49.048;8.396;2023-02-28T15:43:49;6.97;;;4.77;;
16270;SDS011;8243;49.048;8.396;2023-02-28T15:47:01;7.87;;;6.40;;
16270;SDS011;8243;49.048;8.396;2023-02-28T15:49:29;6.93;;;5.07;;
16270;SDS011;8243;49.048;8.396;2023-02-28T15:52:22;7.60;;;6.80;;
16270;SDS011;8243;49.048;8.396;2023-02-28T15:54:56;19.37;;;10.13;;
16270;SDS011;8243;49.048;8.396;2023-02-28T15:57:27;8.17;;;5.17;;
16270;SDS011;8243;49.048;8.396;2023-02-28T15:59:55;7.57;;;6.27;;
16270;SDS011;8243;49.048;8.396;2023-02-28T16:02:32;10.23;;;7.33;;
16270;SDS011;8243;49.048;8.396;2023-02-28T16:05:13;8.07;;;6.33;;
16270;SDS011;8243;49.048;8.396;2023-02-28T16:07:45;9.20;;;6.67;;
16270;SDS011;8243;49.048;8.396;2023-02-28T16:10:13;8.07;;;6.73;;
16270;SDS011;8243;49.048;8.396;2023-02-28T16:12:39;7.00;;;6.30;;
16270;SDS011;8243;49.048;8.396;2023-02-28T16:15:07;8.20;;;6.77;;
16270;SDS011;8243;49.048;8.396;2023-02-28T16:17:42;8.40;;;6.37;;
16270;SDS011;8243;49.048;8.396;2023-02-28T16:22:41;9.70;;;6.70;;
16270;SDS011;8243;49.048;8.396;2023-02-28T16:25:10;7.97;;;6.70;;
16270;SDS011;8243;49.048;8.396;2023-02-28T16:27:37;8.43;;;6.53;;
16270;SDS011;8243;49.048;8.396;2023-02-28T16:30:04;7.70;;;6.43;;
16270;SDS011;8243;49.048;8.396;2023-02-28T16:32:31;8.57;;;7.43;;
16270;SDS011;8243;49.048;8.396;2023-02-28T16:34:59;9.30;;;6.97;;
16270;SDS011;8243;49.048;8.396;2023-02-28T16:37:26;9.37;;;6.90;;
16270;SDS011;8243;49.048;8.396;2023-02-28T16:39:53;7.00;;;5.93;;
16270;SDS011;8243;49.048;8.396;2023-02-28T16:42:20;7.60;;;6.80;;
16270;SDS011;8243;49.048;8.396;2023-02-28T16:44:52;7.20;;;6.40;;
16270;SDS011;8243;49.048;8.396;2023-02-28T16:47:18;5.83;;;4.47;;
16270;SDS011;8243;49.048;8.396;2023-02-28T16:49:44;7.83;;;6.37;;
16270;SDS011;8243;49.048;8.396;2023-02-28T16:52:10;8.83;;;4.97;;
16270;SDS011;8243;49.048;8.396;2023-02-28T16:54:37;5.00;;;4.50;;
16270;SDS011;8243;49.048;8.396;2023-02-28T16:57:03;8.07;;;6.60;;
16270;SDS011;8243;49.048;8.396;2023-02-28T16:59:30;8.27;;;6.63;;
16270;SDS011;8243;49.048;8.396;2023-02-28T17:01:56;9.33;;;6.70;;
16270;SDS011;8243;49.048;8.396;2023-02-28T17:04:23;8.77;;;5.43;;
16270;SDS011;8243;49.048;8.396;2023-02-28T17:06:50;6.57;;;5.67;;
16270;SDS011;8243;49.048;8.396;2023-02-28T17:09:17;7.53;;;6.70;;
16270;SDS011;8243;49.048;8.396;2023-02-28T17:11:45;8.93;;;6.27;;
16270;SDS011;8243;49.048;8.396;2023-02-28T17:14:12;7.67;;;5.27;;
16270;SDS011;8243;49.048;8.396;2023-02-28T17:16:37;8.03;;;7.23;;
16270;SDS011;8243;49.048;8.396;2023-02-28T17:19:14;6.30;;;5.33;;
16270;SDS011;8243;49.048;8.396;2023-02-28T17:21:40;7.50;;;5.30;;
16270;SDS011;8243;49.048;8.396;2023-02-28T17:24:07;10.37;;;6.50;;
16270;SDS011;8243;49.048;8.396;2023-02-28T17:26:33;6.20;;;4.80;;
16270;SDS011;8243;49.048;8.396;2023-02-28T17:28:59;9.83;;;6.40;;
16270;SDS011;8243;49.048;8.396;2023-02-28T17:31:26;7.13;;;6.07;;
16270;SDS011;8243;49.048;8.396;2023-02-28T17:33:52;7.83;;;6.10;;
16270;SDS011;8243;49.048;8.396;2023-02-28T17:36:24;9.23;;;5.40;;